Time;durP1;ratioP1;P1;durP2;ratioP2;P2;SDS_P1;SDS_P2;PMS_P1;PMS_P2;Temp;Humidity;BMP_temperature;BMP_pressure;BME280_temperature;BME280_humidity;BME280_pressure;Samples;Min_cycle;Max_cycle;Signal;HPM_P1;HPM_P2
2021/04/07 00:02:11;;;;;;;14.10;5.30;;;28.60;90.50;;;;;;5103980;28;20103;-51
2021/04/07 00:04:37;;;;;;;8.32;4.63;;;28.50;90.00;;;;;;5112562;28;20051;-52
2021/04/07 00:07:04;;;;;;;6.75;4.93;;;28.40;89.70;;;;;;5126712;28;20022;-46
2021/04/07 00:09:30;;;;;;;7.55;4.38;;;28.40;89.90;;;;;;5126596;28;20024;-49
2021/04/07 00:11:57;;;;;;;11.00;4.18;;;28.30;89.40;;;;;;5126834;28;20020;-47
2021/04/07 00:14:24;;;;;;;5.70;3.45;;;28.10;89.70;;;;;;5121423;28;20028;-48
2021/04/07 00:16:51;;;;;;;5.28;3.15;;;28.10;89.70;;;;;;5129230;27;20032;-44
2021/04/07 00:19:17;;;;;;;8.88;5.20;;;28.00;89.60;;;;;;5126348;28;20291;-46
2021/04/07 00:21:44;;;;;;;6.63;3.40;;;27.90;89.70;;;;;;5126388;28;20012;-48
2021/04/07 00:24:11;;;;;;;4.47;3.40;;;27.90;90.00;;;;;;5125647;28;20020;-47
2021/04/07 00:26:38;;;;;;;11.82;5.57;;;27.80;90.30;;;;;;5117210;28;20047;-55
2021/04/07 00:29:05;;;;;;;20.33;6.78;;;27.80;90.50;;;;;;5118990;28;20015;-46
2021/04/07 00:31:31;;;;;;;21.70;8.38;;;27.70;90.50;;;;;;5101815;28;20270;-49
2021/04/07 00:33:58;;;;;;;49.88;14.13;;;27.80;90.90;;;;;;5117087;28;20023;-50
2021/04/07 00:36:24;;;;;;;56.00;15.82;;;27.80;90.90;;;;;;5123002;28;20083;-50
2021/04/07 00:38:51;;;;;;;30.63;9.98;;;27.60;90.50;;;;;;5125451;28;20032;-50
2021/04/07 00:41:18;;;;;;;15.07;5.90;;;27.50;90.70;;;;;;5086946;28;20324;-45
2021/04/07 00:43:44;;;;;;;14.68;5.10;;;27.40;91.00;;;;;;5087088;28;20278;-49
2021/04/07 00:46:11;;;;;;;12.45;4.15;;;27.40;91.10;;;;;;5145201;27;20027;-48
2021/04/07 00:48:38;;;;;;;7.68;3.22;;;27.30;91.20;;;;;;5146361;27;20011;-51
2021/04/07 00:51:05;;;;;;;7.22;3.80;;;27.30;91.10;;;;;;5146317;27;20023;-46
2021/04/07 00:53:31;;;;;;;8.57;3.40;;;27.40;91.40;;;;;;5137155;27;20104;-47
2021/04/07 00:55:58;;;;;;;7.43;3.20;;;27.30;91.30;;;;;;5124848;27;20023;-48
2021/04/07 00:58:25;;;;;;;5.63;2.63;;;27.30;91.40;;;;;;5115295;27;20038;-48
2021/04/07 01:00:54;;;;;;;8.50;2.92;;;27.30;91.40;;;;;;5145683;27;20042;-48
2021/04/07 01:03:20;;;;;;;10.50;2.95;;;27.30;91.50;;;;;;5145902;27;20031;-47
2021/04/07 01:05:47;;;;;;;10.27;2.13;;;27.30;91.60;;;;;;5110718;28;20030;-47
2021/04/07 01:08:13;;;;;;;6.80;2.60;;;27.20;91.60;;;;;;5125087;28;20019;-42
2021/04/07 01:10:40;;;;;;;3.30;2.20;;;27.20;91.70;;;;;;5124352;28;20085;-45
2021/04/07 01:13:07;;;;;;;5.53;2.22;;;27.00;91.50;;;;;;5124144;28;20031;-54
2021/04/07 01:15:33;;;;;;;5.35;2.20;;;27.00;91.70;;;;;;5125442;28;20034;-45
2021/04/07 01:18:00;;;;;;;5.72;2.70;;;27.00;91.90;;;;;;5144054;27;20031;-46
2021/04/07 01:20:27;;;;;;;7.13;2.38;;;26.90;92.10;;;;;;5132469;27;20035;-46
2021/04/07 01:23:04;;;;;;;4.38;2.20;;;26.90;92.40;;;;;;5125196;28;20011;-44
2021/04/07 01:25:31;;;;;;;4.55;1.77;;;26.80;92.40;;;;;;5124520;28;20027;-48
2021/04/07 01:27:59;;;;;;;6.03;2.25;;;26.80;92.50;;;;;;5124536;28;20211;-52
2021/04/07 01:30:25;;;;;;;5.85;2.20;;;26.70;92.50;;;;;;5111482;28;20054;-56
2021/04/07 01:32:52;;;;;;;3.15;1.77;;;26.70;92.60;;;;;;5085527;28;20338;-52
2021/04/07 01:35:20;;;;;;;3.63;1.70;;;26.70;92.70;;;;;;5129257;27;20031;-46
2021/04/07 01:37:46;;;;;;;3.25;1.88;;;26.60;92.90;;;;;;5145721;27;20171;-47
2021/04/07 01:40:15;;;;;;;5.90;2.10;;;26.50;93.00;;;;;;5145625;27;20027;-44
2021/04/07 01:42:46;;;;;;;3.58;1.83;;;26.50;93.30;;;;;;5145011;27;20026;-44
2021/04/07 01:45:13;;;;;;;6.05;2.00;;;26.40;93.90;;;;;;5144911;27;20023;-53
2021/04/07 01:47:40;;;;;;;4.72;1.48;;;26.30;93.70;;;;;;5144986;27;20015;-45
2021/04/07 01:50:08;;;;;;;5.47;1.73;;;26.20;93.50;;;;;;5145721;27;20030;-48
2021/04/07 01:52:35;;;;;;;4.22;1.70;;;26.20;93.20;;;;;;5126904;27;20058;-48
2021/04/07 01:55:02;;;;;;;4.05;1.92;;;26.20;93.30;;;;;;5145160;27;20023;-51
2021/04/07 01:57:29;;;;;;;5.63;2.50;;;26.20;93.40;;;;;;5144050;27;20219;-50
2021/04/07 01:59:57;;;;;;;7.15;3.00;;;26.30;93.30;;;;;;5145007;27;20072;-48
2021/04/07 02:02:24;;;;;;;7.82;2.85;;;26.40;93.10;;;;;;5144970;27;20019;-48
2021/04/07 02:04:50;;;;;;;6.25;4.03;;;26.50;92.90;;;;;;5144979;27;20039;-49
2021/04/07 02:07:18;;;;;;;9.90;4.05;;;26.50;92.90;;;;;;5144989;27;20088;-49
2021/04/07 02:09:45;;;;;;;12.52;7.72;;;26.60;93.00;;;;;;5144148;27;20092;-49
2021/04/07 02:12:12;;;;;;;11.55;6.80;;;26.60;93.00;;;;;;5144567;27;20019;-48
2021/04/07 02:14:39;;;;;;;10.82;4.40;;;26.60;93.10;;;;;;5144689;27;20095;-49
2021/04/07 02:17:06;;;;;;;7.50;4.07;;;26.60;93.00;;;;;;5144319;27;20030;-50
2021/04/07 02:19:35;;;;;;;6.88;2.92;;;26.70;92.90;;;;;;5113235;28;20034;-55
2021/04/07 02:22:09;;;;;;;5.80;2.83;;;26.70;92.80;;;;;;5124198;28;20023;-50
2021/04/07 02:24:38;;;;;;;6.15;2.53;;;26.70;92.80;;;;;;5124141;28;20416;-49
2021/04/07 02:27:31;;;;;;;6.30;2.28;;;26.70;92.80;;;;;;5122850;28;20083;-49
2021/04/07 02:29:59;;;;;;;5.47;2.60;;;26.70;92.80;;;;;;5119864;28;20103;-50
2021/04/07 02:32:27;;;;;;;7.00;2.28;;;26.70;92.90;;;;;;5102788;28;20047;-50
2021/04/07 02:34:53;;;;;;;5.88;2.05;;;26.70;92.90;;;;;;5124330;28;20070;-47
2021/04/07 02:37:21;;;;;;;5.70;1.92;;;26.70;92.90;;;;;;5124460;28;20028;-49
2021/04/07 02:39:48;;;;;;;6.93;1.88;;;26.70;92.80;;;;;;5124170;28;20028;-50
2021/04/07 02:42:17;;;;;;;4.03;1.77;;;26.70;92.70;;;;;;5123706;28;20012;-48
2021/04/07 02:44:44;;;;;;;4.53;1.60;;;26.70;92.60;;;;;;5124423;28;20023;-50
2021/04/07 02:47:10;;;;;;;2.97;1.38;;;26.70;92.70;;;;;;5124202;28;20219;-48
2021/04/07 02:49:37;;;;;;;5.22;1.30;;;26.70;92.60;;;;;;5123706;28;20024;-52
2021/04/07 02:52:04;;;;;;;4.57;1.30;;;26.70;92.80;;;;;;5123618;28;20107;-49
2021/04/07 02:54:32;;;;;;;3.38;1.25;;;26.70;92.50;;;;;;5123679;28;20027;-53
2021/04/07 02:57:00;;;;;;;2.55;1.00;;;26.70;92.70;;;;;;5123548;28;20047;-48
2021/04/07 02:59:27;;;;;;;4.20;1.15;;;26.70;92.40;;;;;;5106010;28;20023;-51
2021/04/07 03:01:53;;;;;;;4.22;1.15;;;26.70;92.40;;;;;;5106070;28;20016;-49
2021/04/07 03:04:20;;;;;;;4.63;1.27;;;26.70;92.50;;;;;;5123886;28;20031;-47
2021/04/07 03:06:46;;;;;;;3.45;1.20;;;26.70;92.50;;;;;;5123848;28;20011;-53
2021/04/07 03:09:13;;;;;;;2.70;0.88;;;26.70;92.40;;;;;;5123701;28;20008;-49
2021/04/07 03:11:39;;;;;;;4.00;1.00;;;26.70;92.40;;;;;;5123456;28;20050;-47
2021/04/07 03:14:06;;;;;;;1.95;0.80;;;26.60;92.30;;;;;;5123360;28;20337;-48
2021/04/07 03:16:34;;;;;;;2.80;0.90;;;26.60;92.30;;;;;;5123856;28;20023;-52
2021/04/07 03:19:00;;;;;;;2.70;1.00;;;26.60;92.20;;;;;;5105439;28;20057;-49
2021/04/07 03:21:27;;;;;;;2.90;0.82;;;26.60;92.20;;;;;;5123673;28;20092;-49
2021/04/07 03:23:53;;;;;;;3.00;0.77;;;26.60;92.10;;;;;;5123821;28;20015;-46
2021/04/07 03:26:20;;;;;;;1.58;0.60;;;26.60;92.20;;;;;;5123421;28;20027;-46
2021/04/07 03:28:47;;;;;;;1.35;0.63;;;26.60;92.20;;;;;;5126808;28;20011;-48
2021/04/07 03:31:14;;;;;;;1.83;0.70;;;26.60;92.20;;;;;;5127591;28;20051;-46
2021/04/07 03:33:41;;;;;;;6.82;0.80;;;26.60;92.20;;;;;;5127468;28;20020;-49
2021/04/07 03:36:09;;;;;;;3.67;0.93;;;26.60;92.20;;;;;;5127654;28;20073;-52
2021/04/07 03:38:36;;;;;;;2.45;0.68;;;26.60;92.20;;;;;;5127307;28;20027;-43
2021/04/07 03:41:03;;;;;;;2.92;0.70;;;26.60;92.10;;;;;;5126347;28;20307;-51
2021/04/07 03:43:30;;;;;;;2.05;0.77;;;26.60;92.10;;;;;;5126728;28;20323;-50
2021/04/07 03:45:59;;;;;;;2.88;0.95;;;26.60;92.10;;;;;;5127006;28;20023;-49
2021/04/07 03:48:31;;;;;;;5.65;0.70;;;26.60;92.20;;;;;;5126637;28;20007;-54
2021/04/07 03:50:58;;;;;;;3.45;1.17;;;26.60;92.40;;;;;;5126973;28;20028;-50
2021/04/07 03:53:25;;;;;;;2.92;0.95;;;26.60;92.30;;;;;;5126617;28;20129;-48
2021/04/07 03:55:55;;;;;;;3.33;1.10;;;26.60;92.30;;;;;;5125472;28;20043;-49
2021/04/07 03:58:22;;;;;;;2.13;1.08;;;26.50;92.40;;;;;;5108904;28;20064;-50
2021/04/07 04:00:49;;;;;;;3.25;0.88;;;26.60;92.30;;;;;;5126557;28;20027;-54
2021/04/07 04:03:17;;;;;;;6.80;0.98;;;26.60;92.30;;;;;;5125782;28;20091;-56
2021/04/07 04:05:44;;;;;;;8.50;0.80;;;26.60;92.30;;;;;;5123852;28;20208;-49
2021/04/07 04:08:10;;;;;;;4.57;0.82;;;26.50;92.10;;;;;;5125807;28;20024;-51
2021/04/07 04:10:37;;;;;;;2.58;0.98;;;26.50;92.10;;;;;;5126013;28;20047;-49
2021/04/07 04:13:05;;;;;;;2.92;0.70;;;26.50;92.10;;;;;;5126070;28;20031;-51
2021/04/07 04:15:35;;;;;;;3.28;0.60;;;26.50;92.10;;;;;;5125912;28;20300;-49
2021/04/07 04:18:05;;;;;;;2.05;0.50;;;26.50;92.00;;;;;;5125354;28;20026;-44
2021/04/07 04:20:31;;;;;;;3.70;0.90;;;26.50;91.90;;;;;;5124875;28;20019;-51
2021/04/07 04:22:58;;;;;;;2.90;0.77;;;26.40;91.90;;;;;;5125168;28;20078;-54
2021/04/07 04:25:25;;;;;;;3.58;0.50;;;26.50;91.80;;;;;;5126674;28;20025;-49
2021/04/07 04:27:51;;;;;;;2.25;0.60;;;26.40;91.70;;;;;;5108117;28;20260;-48
2021/04/07 04:30:21;;;;;;;1.52;0.40;;;26.40;91.70;;;;;;5126367;28;20062;-50
2021/04/07 04:32:49;;;;;;;1.80;0.60;;;26.40;91.70;;;;;;5125994;28;20024;-52
2021/04/07 04:35:17;;;;;;;1.45;0.60;;;26.40;91.60;;;;;;5125288;28;20383;-50
2021/04/07 04:37:45;;;;;;;3.13;0.60;;;26.40;91.70;;;;;;5124640;28;20026;-55
2021/04/07 04:40:12;;;;;;;3.17;0.80;;;26.40;91.70;;;;;;5124971;28;20103;-54
2021/04/07 04:42:39;;;;;;;6.18;0.85;;;26.40;91.70;;;;;;5125919;28;20011;-53
2021/04/07 04:45:07;;;;;;;1.48;0.50;;;26.40;91.70;;;;;;5126198;28;20027;-51
2021/04/07 04:47:34;;;;;;;2.58;0.60;;;26.40;91.70;;;;;;5125827;28;20016;-52
2021/04/07 04:50:02;;;;;;;5.05;0.55;;;26.30;91.70;;;;;;5107719;28;20066;-53
2021/04/07 04:52:29;;;;;;;1.70;0.38;;;26.30;91.70;;;;;;5125885;28;20370;-49
2021/04/07 04:54:55;;;;;;;3.00;0.60;;;26.30;91.70;;;;;;5125870;28;20031;-49
2021/04/07 04:57:22;;;;;;;3.83;0.70;;;26.30;91.80;;;;;;5125959;28;20039;-55
2021/04/07 04:59:48;;;;;;;2.05;0.50;;;26.30;91.90;;;;;;5125898;28;20326;-49
2021/04/07 05:02:15;;;;;;;2.10;0.50;;;26.30;92.00;;;;;;5125618;28;20024;-48
2021/04/07 05:04:42;;;;;;;3.67;0.75;;;26.30;92.20;;;;;;5125964;28;20242;-51
2021/04/07 05:07:09;;;;;;;1.70;0.70;;;26.30;92.30;;;;;;5125571;28;20090;-58
2021/04/07 05:09:35;;;;;;;4.85;0.93;;;26.30;92.30;;;;;;5125440;28;20031;-49
2021/04/07 05:12:02;;;;;;;2.30;0.80;;;26.30;92.30;;;;;;5125591;28;20220;-48
2021/04/07 05:14:29;;;;;;;3.10;0.73;;;26.30;92.40;;;;;;5125427;28;20269;-54
2021/04/07 05:16:55;;;;;;;5.32;0.93;;;26.30;92.40;;;;;;5125434;28;20203;-50
2021/04/07 05:19:22;;;;;;;1.98;0.73;;;26.30;92.40;;;;;;5125538;28;20129;-49
2021/04/07 05:21:48;;;;;;;2.38;0.60;;;26.30;92.50;;;;;;5125323;28;20008;-55
2021/04/07 05:24:15;;;;;;;5.10;1.17;;;26.30;92.60;;;;;;5125274;28;20019;-50
2021/04/07 05:26:42;;;;;;;4.95;1.00;;;26.30;92.60;;;;;;5125480;28;20223;-50
2021/04/07 05:29:08;;;;;;;3.58;0.80;;;26.30;92.50;;;;;;5125253;28;20082;-48
2021/04/07 05:31:35;;;;;;;3.53;0.85;;;26.30;92.50;;;;;;5124999;28;20331;-43
2021/04/07 05:34:02;;;;;;;3.55;0.70;;;26.30;92.60;;;;;;5125009;28;20035;-52
2021/04/07 05:36:28;;;;;;;6.15;0.98;;;26.30;92.60;;;;;;5125042;28;20086;-49
2021/04/07 05:38:55;;;;;;;4.40;0.80;;;26.30;92.60;;;;;;5124880;28;20050;-50
2021/04/07 05:41:22;;;;;;;8.20;0.82;;;26.30;92.70;;;;;;5124810;28;20030;-51
2021/04/07 05:43:48;;;;;;;5.35;0.88;;;26.30;92.70;;;;;;5124806;28;20038;-49
2021/04/07 05:46:15;;;;;;;6.75;1.02;;;26.30;92.70;;;;;;5125407;28;20058;-53
2021/04/07 05:48:41;;;;;;;4.55;0.82;;;26.20;92.70;;;;;;5124737;28;20026;-55
2021/04/07 05:51:08;;;;;;;8.38;1.27;;;26.30;92.80;;;;;;5124820;28;20077;-49
2021/04/07 05:53:35;;;;;;;4.20;0.80;;;26.30;92.70;;;;;;5124839;28;20019;-49
2021/04/07 05:56:02;;;;;;;4.65;0.85;;;26.30;92.70;;;;;;5124710;28;20023;-50
2021/04/07 05:58:29;;;;;;;2.90;0.80;;;26.30;92.70;;;;;;5124715;28;20022;-48
2021/04/07 06:00:56;;;;;;;3.58;0.73;;;26.30;92.70;;;;;;5124918;28;20031;-46
2021/04/07 06:03:23;;;;;;;6.03;0.90;;;26.20;92.60;;;;;;5124401;28;20069;-49
2021/04/07 06:05:51;;;;;;;5.63;1.23;;;26.20;92.70;;;;;;5125011;28;20314;-56
2021/04/07 06:08:19;;;;;;;3.55;0.70;;;26.20;92.80;;;;;;5124566;28;20195;-49
2021/04/07 06:10:48;;;;;;;5.60;0.90;;;26.20;92.80;;;;;;5124717;28;20058;-53
2021/04/07 06:13:17;;;;;;;3.78;0.73;;;26.20;92.80;;;;;;5124388;28;20019;-55
2021/04/07 06:15:44;;;;;;;6.43;1.00;;;26.20;92.80;;;;;;5106447;28;20326;-50
2021/04/07 06:18:13;;;;;;;2.65;0.80;;;26.20;92.70;;;;;;5124228;28;20027;-47
2021/04/07 06:20:42;;;;;;;8.63;1.35;;;26.20;92.70;;;;;;5124525;28;20038;-51
2021/04/07 06:23:10;;;;;;;4.78;0.90;;;26.20;92.80;;;;;;5106202;28;20405;-51
2021/04/07 06:25:38;;;;;;;3.88;0.70;;;26.20;92.80;;;;;;5124210;28;20479;-51
2021/04/07 06:28:09;;;;;;;7.60;0.70;;;26.20;92.80;;;;;;5124530;28;20022;-48
2021/04/07 06:30:45;;;;;;;3.63;0.95;;;26.20;92.70;;;;;;5124134;28;20081;-49
2021/04/07 06:33:27;;;;;;;6.05;0.90;;;26.20;92.80;;;;;;5124210;28;20376;-54
2021/04/07 06:36:02;;;;;;;8.10;1.05;;;26.20;92.80;;;;;;5124444;28;20244;-48
2021/04/07 06:38:30;;;;;;;3.55;0.70;;;26.20;92.80;;;;;;5124213;28;20027;-49
2021/04/07 06:41:00;;;;;;;3.38;0.80;;;26.10;92.80;;;;;;5124636;28;20024;-56
2021/04/07 06:43:29;;;;;;;8.38;1.00;;;26.20;92.90;;;;;;5124068;28;20357;-51
2021/04/07 06:45:56;;;;;;;6.38;0.80;;;26.10;92.90;;;;;;5124667;28;20028;-48
2021/04/07 06:48:23;;;;;;;3.15;0.80;;;26.20;92.90;;;;;;5124210;28;20012;-53
2021/04/07 06:50:55;;;;;;;6.88;0.60;;;26.10;92.80;;;;;;5124368;28;20371;-50
2021/04/07 06:53:29;;;;;;;5.22;0.93;;;26.10;92.80;;;;;;5124099;28;20023;-52
2021/04/07 06:55:56;;;;;;;4.63;0.80;;;26.10;92.90;;;;;;5124274;28;20065;-50
2021/04/07 06:58:22;;;;;;;3.72;0.80;;;26.10;92.90;;;;;;5124283;28;20015;-50
2021/04/07 07:00:49;;;;;;;5.38;0.85;;;26.10;92.90;;;;;;5124403;28;20032;-50
2021/04/07 07:03:18;;;;;;;7.05;1.10;;;26.10;93.00;;;;;;5126086;28;20026;-49
2021/04/07 07:05:50;;;;;;;4.00;0.70;;;26.10;92.90;;;;;;5128409;28;20024;-49
2021/04/07 07:08:18;;;;;;;6.65;1.02;;;26.10;92.90;;;;;;5127904;28;20020;-54
2021/04/07 07:10:47;;;;;;;4.38;0.70;;;26.10;93.00;;;;;;5127749;28;20023;-48
2021/04/07 07:13:19;;;;;;;5.70;0.70;;;26.10;93.00;;;;;;5127949;28;20307;-53
2021/04/07 07:15:46;;;;;;;7.57;0.90;;;26.10;92.90;;;;;;5128238;28;20092;-49
2021/04/07 07:18:27;;;;;;;3.42;0.90;;;26.10;92.90;;;;;;5127718;28;20015;-49
2021/04/07 07:20:55;;;;;;;2.83;0.60;;;26.10;92.80;;;;;;5128040;28;20042;-50
2021/04/07 07:23:27;;;;;;;5.93;0.70;;;26.00;92.70;;;;;;5127557;28;20012;-50
2021/04/07 07:26:05;;;;;;;8.93;0.93;;;26.00;92.60;;;;;;5127996;28;20028;-47
2021/04/07 07:28:52;;;;;;;5.15;0.70;;;26.00;92.60;;;;;;5127391;28;20211;-46
2021/04/07 07:31:31;;;;;;;6.15;0.75;;;26.00;92.50;;;;;;5127303;28;20043;-50
2021/04/07 07:33:59;;;;;;;4.57;0.60;;;26.00;92.40;;;;;;5126458;28;20102;-48
2021/04/07 07:36:28;;;;;;;4.57;0.82;;;26.00;92.40;;;;;;5120312;28;20028;-46
2021/04/07 07:38:56;;;;;;;9.02;0.70;;;26.00;92.30;;;;;;5127194;28;20046;-48
2021/04/07 07:41:25;;;;;;;13.15;1.40;;;26.00;92.30;;;;;;5127235;28;20082;-48
2021/04/07 07:43:53;;;;;;;5.90;0.70;;;26.00;92.30;;;;;;5127360;28;20036;-49
2021/04/07 07:46:22;;;;;;;13.15;1.00;;;26.00;92.30;;;;;;5127188;28;20211;-45
2021/04/07 07:48:50;;;;;;;5.47;0.88;;;26.00;92.30;;;;;;5127168;28;20016;-49
2021/04/07 07:51:22;;;;;;;4.05;0.70;;;26.00;92.40;;;;;;5126989;28;20038;-49
2021/04/07 07:53:50;;;;;;;4.32;1.00;;;26.00;92.20;;;;;;5126970;28;20022;-54
2021/04/07 07:56:19;;;;;;;9.48;0.90;;;26.00;92.30;;;;;;5127555;28;20029;-53
2021/04/07 07:58:52;;;;;;;11.65;0.80;;;26.00;92.20;;;;;;5127021;28;20094;-51
2021/04/07 08:01:20;;;;;;;4.90;0.93;;;26.00;92.20;;;;;;5126982;28;20090;-51
2021/04/07 08:03:48;;;;;;;5.65;0.80;;;26.00;92.30;;;;;;5126920;28;20012;-51
2021/04/07 08:06:16;;;;;;;6.78;0.90;;;25.90;92.30;;;;;;5126748;28;20034;-46
2021/04/07 08:08:43;;;;;;;6.72;0.88;;;25.90;92.40;;;;;;5126523;28;20324;-48
2021/04/07 08:11:10;;;;;;;4.50;0.55;;;25.90;92.30;;;;;;5127210;28;20399;-55
2021/04/07 08:13:44;;;;;;;5.28;0.80;;;25.90;92.40;;;;;;5126414;28;20075;-48
2021/04/07 08:16:14;;;;;;;10.90;1.00;;;25.90;92.40;;;;;;5126998;28;20035;-50
2021/04/07 08:18:42;;;;;;;9.73;1.05;;;25.90;92.50;;;;;;5126618;28;20079;-52
2021/04/07 08:21:09;;;;;;;9.77;0.90;;;25.90;92.50;;;;;;5126728;28;20118;-52
2021/04/07 08:23:36;;;;;;;8.57;0.80;;;25.90;92.60;;;;;;5126379;28;20015;-49
2021/04/07 08:26:06;;;;;;;3.53;0.80;;;25.80;92.60;;;;;;5126615;28;20019;-51
2021/04/07 08:28:33;;;;;;;8.43;0.75;;;25.90;92.70;;;;;;5126506;28;20042;-52
2021/04/07 08:31:00;;;;;;;6.68;0.85;;;25.90;92.80;;;;;;5126325;28;20061;-49
2021/04/07 08:33:26;;;;;;;7.00;0.85;;;25.90;92.80;;;;;;5126227;28;20223;-49
2021/04/07 08:35:54;;;;;;;5.57;0.55;;;25.90;92.90;;;;;;5126570;28;20098;-48
2021/04/07 08:38:33;;;;;;;9.82;1.10;;;25.80;92.80;;;;;;5126313;28;20076;-48
2021/04/07 08:41:12;;;;;;;5.68;0.90;;;25.90;92.80;;;;;;5125873;28;20324;-52
2021/04/07 08:43:39;;;;;;;7.18;1.08;;;25.80;92.80;;;;;;5126161;28;20043;-51
2021/04/07 08:46:17;;;;;;;10.38;0.95;;;25.80;92.90;;;;;;5126565;28;20073;-50
2021/04/07 08:48:44;;;;;;;5.35;0.65;;;25.80;92.90;;;;;;5125973;28;20028;-52
2021/04/07 08:51:13;;;;;;;6.80;0.82;;;25.80;92.90;;;;;;5125758;28;20024;-49
2021/04/07 08:53:42;;;;;;;7.60;0.80;;;25.80;93.00;;;;;;5125699;28;20030;-51
2021/04/07 08:56:11;;;;;;;8.75;0.90;;;25.80;93.00;;;;;;5125658;28;20081;-49
2021/04/07 08:58:52;;;;;;;10.32;1.20;;;25.80;93.10;;;;;;5125679;28;20330;-49
2021/04/07 09:01:20;;;;;;;5.20;0.98;;;25.80;93.20;;;;;;5125516;28;20032;-41
2021/04/07 09:03:47;;;;;;;8.43;0.90;;;25.80;93.20;;;;;;5125752;28;20015;-42
2021/04/07 09:06:14;;;;;;;6.63;1.00;;;25.80;93.20;;;;;;5126114;28;20033;-48
2021/04/07 09:08:52;;;;;;;5.32;0.90;;;25.70;93.20;;;;;;5125426;28;20020;-44
2021/04/07 09:11:33;;;;;;;11.32;0.93;;;25.70;93.20;;;;;;5125457;28;20032;-44
2021/04/07 09:14:04;;;;;;;11.23;0.90;;;25.70;93.30;;;;;;5125371;28;20065;-48
2021/04/07 09:16:44;;;;;;;6.93;1.05;;;25.70;93.30;;;;;;5125423;28;20024;-49
2021/04/07 09:19:19;;;;;;;12.13;1.15;;;25.70;93.40;;;;;;5125299;28;20023;-46
2021/04/07 09:21:58;;;;;;;6.15;0.77;;;25.70;93.30;;;;;;5125429;28;20038;-48
2021/04/07 09:24:28;;;;;;;5.32;1.00;;;25.70;93.30;;;;;;5125111;28;20203;-47
2021/04/07 09:26:57;;;;;;;13.63;0.93;;;25.70;93.20;;;;;;5124768;28;20064;-48
2021/04/07 09:29:24;;;;;;;5.85;1.10;;;25.70;93.10;;;;;;5125150;28;20019;-48
2021/04/07 09:31:52;;;;;;;5.97;0.80;;;25.60;93.20;;;;;;5124850;28;20274;-51
2021/04/07 09:34:19;;;;;;;5.13;0.65;;;25.60;93.30;;;;;;5125125;28;20034;-56
2021/04/07 09:36:48;;;;;;;7.55;1.10;;;25.70;93.30;;;;;;5124968;28;20019;-50
2021/04/07 09:39:23;;;;;;;4.13;1.05;;;25.70;93.40;;;;;;5124676;28;20024;-49
2021/04/07 09:41:50;;;;;;;6.45;1.00;;;25.70;93.50;;;;;;5125273;28;20023;-54
2021/04/07 09:44:19;;;;;;;7.88;0.80;;;25.60;93.50;;;;;;5124749;28;20019;-47
2021/04/07 09:46:55;;;;;;;10.40;1.20;;;25.70;93.50;;;;;;5124805;28;20019;-50
2021/04/07 09:49:24;;;;;;;7.25;0.90;;;25.60;93.50;;;;;;5124785;28;20292;-48
2021/04/07 09:51:51;;;;;;;9.13;0.95;;;25.70;93.50;;;;;;5124577;28;20054;-48
2021/04/07 09:54:25;;;;;;;7.20;0.77;;;25.60;93.60;;;;;;5124661;28;20035;-42
2021/04/07 09:56:57;;;;;;;10.68;0.95;;;25.60;93.60;;;;;;5124767;28;20015;-50
2021/04/07 09:59:47;;;;;;;10.27;1.00;;;25.60;93.60;;;;;;5124517;28;20023;-49
2021/04/07 10:02:22;;;;;;;7.20;1.02;;;25.60;93.60;;;;;;5124404;28;20051;-51
2021/04/07 10:04:50;;;;;;;10.05;1.20;;;25.60;93.60;;;;;;5116898;28;20092;-49
2021/04/07 10:07:19;;;;;;;13.10;1.40;;;25.60;93.70;;;;;;5124358;28;20043;-52
2021/04/07 10:09:50;;;;;;;9.77;1.02;;;25.70;93.70;;;;;;5124484;28;20094;-49
2021/04/07 10:12:19;;;;;;;5.45;1.15;;;25.70;93.60;;;;;;5124633;28;20028;-51
2021/04/07 10:14:54;;;;;;;12.63;1.17;;;25.70;93.60;;;;;;5124417;28;20069;-57
2021/04/07 10:17:24;;;;;;;7.30;1.20;;;25.70;93.60;;;;;;5124357;28;20016;-50
2021/04/07 10:19:51;;;;;;;6.85;1.20;;;25.70;93.60;;;;;;5116292;28;20032;-49
2021/04/07 10:22:21;;;;;;;7.70;1.35;;;25.60;93.60;;;;;;5123952;28;20334;-49
2021/04/07 10:24:49;;;;;;;6.05;0.98;;;25.60;93.60;;;;;;5124132;28;20023;-50
2021/04/07 10:27:21;;;;;;;10.75;1.40;;;25.60;93.70;;;;;;5124303;28;20015;-50
2021/04/07 10:29:49;;;;;;;10.50;1.05;;;25.60;93.70;;;;;;5124494;28;20085;-52
2021/04/07 10:32:18;;;;;;;12.52;1.23;;;25.60;93.70;;;;;;5124209;28;20068;-49
2021/04/07 10:34:46;;;;;;;11.57;1.27;;;25.60;93.70;;;;;;5124222;28;20039;-53
2021/04/07 10:37:18;;;;;;;9.15;1.77;;;25.60;93.60;;;;;;5126542;28;20082;-48
2021/04/07 10:39:45;;;;;;;9.23;1.40;;;25.70;93.70;;;;;;5128481;28;20030;-48
2021/04/07 10:42:19;;;;;;;14.40;1.20;;;25.60;93.70;;;;;;5128206;28;20019;-48
2021/04/07 10:45:05;;;;;;;8.38;1.40;;;25.60;93.80;;;;;;5128726;28;20212;-56
2021/04/07 10:47:39;;;;;;;7.63;1.35;;;25.60;93.60;;;;;;5128243;28;20019;-49
2021/04/07 10:50:08;;;;;;;11.73;1.33;;;25.60;93.50;;;;;;5128532;28;20031;-49
2021/04/07 10:52:40;;;;;;;9.55;1.60;;;25.60;93.40;;;;;;5128366;28;20019;-51
2021/04/07 10:55:19;;;;;;;9.38;1.20;;;25.60;93.40;;;;;;5128635;28;20031;-49
2021/04/07 10:57:48;;;;;;;10.05;1.20;;;25.60;93.30;;;;;;5128351;28;20053;-49
2021/04/07 11:00:38;;;;;;;8.50;1.58;;;25.60;93.20;;;;;;5128269;28;20140;-48
2021/04/07 11:03:06;;;;;;;7.57;0.90;;;25.60;93.10;;;;;;5128227;28;20022;-56
2021/04/07 11:05:44;;;;;;;5.47;0.70;;;25.60;92.90;;;;;;5128361;28;20087;-49
2021/04/07 11:08:16;;;;;;;10.38;1.25;;;25.60;92.90;;;;;;5127931;28;20110;-48
2021/04/07 11:10:47;;;;;;;13.63;2.47;;;25.60;92.70;;;;;;5128076;28;20054;-49
2021/04/07 11:13:15;;;;;;;11.20;4.05;;;25.60;92.70;;;;;;5127973;28;20023;-49
2021/04/07 11:15:42;;;;;;;22.80;4.55;;;25.60;92.50;;;;;;5128237;28;20035;-50
2021/04/07 11:18:09;;;;;;;13.70;2.65;;;25.60;92.50;;;;;;5127682;28;20023;-49
2021/04/07 11:20:37;;;;;;;12.02;2.35;;;25.60;92.60;;;;;;5128086;28;20039;-49
2021/04/07 11:23:04;;;;;;;11.50;1.73;;;25.60;92.60;;;;;;5127640;28;20019;-48
2021/04/07 11:25:32;;;;;;;15.25;2.13;;;25.60;92.60;;;;;;5127699;28;20081;-50
2021/04/07 11:27:59;;;;;;;178.43;9.95;;;25.60;92.50;;;;;;5127456;28;20319;-44
2021/04/07 11:30:30;;;;;;;36.40;3.20;;;25.60;92.70;;;;;;5127640;28;20110;-55
2021/04/07 11:32:58;;;;;;;17.17;2.33;;;25.60;92.80;;;;;;5127408;28;20354;-54
2021/04/07 11:35:36;;;;;;;15.93;2.28;;;25.60;92.80;;;;;;5127791;28;20072;-50
2021/04/07 11:38:05;;;;;;;12.38;1.75;;;25.60;92.90;;;;;;5127009;28;20099;-53
2021/04/07 11:44:23;;;;;;;8.38;2.13;;;25.60;92.90;;;;;;5128179;28;20043;-54
2021/04/07 11:46:03;;;;;;;10.95;2.00;;;25.60;92.90;;;;;;5126313;28;20043;-55
2021/04/07 11:48:30;;;;;;;8.25;1.92;;;25.70;93.00;;;;;;5126871;28;20035;-54
2021/04/07 11:50:56;;;;;;;11.48;1.75;;;25.70;92.90;;;;;;5128132;28;20080;-51
2021/04/07 11:53:23;;;;;;;7.60;1.42;;;25.70;93.00;;;;;;5128142;28;20015;-56
2021/04/07 11:55:49;;;;;;;5.68;1.45;;;25.80;92.90;;;;;;5127732;28;20028;-50
2021/04/07 11:58:16;;;;;;;8.70;1.25;;;25.80;92.80;;;;;;5128033;28;20060;-50
2021/04/07 12:00:42;;;;;;;9.32;1.60;;;25.80;92.80;;;;;;5127504;28;20027;-50
2021/04/07 12:03:09;;;;;;;9.75;1.85;;;25.80;92.80;;;;;;5127578;28;20016;-52
2021/04/07 12:05:35;;;;;;;4.32;1.98;;;25.80;92.80;;;;;;5128236;28;20028;-49
2021/04/07 12:08:02;;;;;;;9.95;1.88;;;25.90;92.70;;;;;;5127449;28;20087;-53
2021/04/07 12:10:29;;;;;;;5.50;1.70;;;25.90;92.60;;;;;;5127162;28;20031;-48
2021/04/07 12:12:56;;;;;;;9.15;2.00;;;25.90;92.80;;;;;;5127310;28;20256;-50
2021/04/07 12:15:22;;;;;;;6.82;1.90;;;25.90;92.70;;;;;;5127834;28;20095;-57
2021/04/07 12:17:49;;;;;;;9.98;2.05;;;26.00;92.90;;;;;;5126934;28;20016;-49
2021/04/07 12:20:16;;;;;;;8.25;1.58;;;26.00;93.00;;;;;;5126950;28;20027;-49
2021/04/07 12:22:43;;;;;;;10.07;1.70;;;26.00;92.80;;;;;;5126740;28;20012;-50
2021/04/07 12:25:12;;;;;;;8.40;1.42;;;26.00;92.60;;;;;;5127277;28;20020;-50
2021/04/07 12:27:39;;;;;;;7.15;1.70;;;26.00;92.40;;;;;;5127292;28;20024;-55
2021/04/07 12:30:06;;;;;;;5.22;1.10;;;26.00;92.40;;;;;;5127532;28;20095;-53
2021/04/07 12:32:33;;;;;;;8.05;1.20;;;26.00;92.40;;;;;;5126920;28;20023;-51
2021/04/07 12:34:59;;;;;;;8.57;1.17;;;26.00;92.60;;;;;;5127115;28;20019;-48
2021/04/07 12:37:27;;;;;;;6.65;1.23;;;26.10;92.70;;;;;;5126983;28;20042;-45
2021/04/07 12:39:54;;;;;;;4.35;1.00;;;26.10;92.70;;;;;;5126622;28;20046;-52
2021/04/07 12:42:26;;;;;;;6.20;1.50;;;26.10;92.70;;;;;;5127032;28;20015;-53
2021/04/07 12:44:53;;;;;;;7.40;1.90;;;26.10;92.60;;;;;;5126870;28;20026;-45
2021/04/07 12:47:20;;;;;;;7.55;2.15;;;26.20;92.60;;;;;;5126891;28;20023;-51
2021/04/07 12:49:47;;;;;;;7.00;1.60;;;26.20;92.70;;;;;;5126944;28;20412;-50
2021/04/07 12:52:14;;;;;;;4.57;1.48;;;26.20;92.80;;;;;;5126819;28;20022;-59
2021/04/07 12:54:58;;;;;;;6.70;1.40;;;26.30;92.80;;;;;;5126646;28;20023;-50
2021/04/07 12:57:25;;;;;;;8.82;0.90;;;26.30;92.70;;;;;;5126803;28;20046;-50